This is the latest recevied weather packets stored in our database for station/object W0VI. If no packets are shown the sender has not sent any weather packets the latest 10 day(s).
| Time | Temp. | Humidity | Pressure | Rain* | Wind** | Luminosity | Snow |
|---|---|---|---|---|---|---|---|
| 1777927701 | 13.33° C | 44% | 1001.8 hPa | 0 mm | - | 686 W/m² | - |
| 1777927399 | 13.33° C | 42% | 1001.5 hPa | 0 mm | - | 225 W/m² | - |
| 1777927099 | 13.33° C | 41% | 1001.3 hPa | 0 mm | - | 193 W/m² | - |
| 1777926795 | 13.33° C | 42% | 1001.2 hPa | 0 mm | - | 283 W/m² | - |
| 1777926491 | 13.89° C | 42% | 1001.2 hPa | 0 mm | - | 162 W/m² | - |
| 1777926189 | 13.89° C | 41% | 1001.3 hPa | 0 mm | - | 166 W/m² | - |
| 1777925885 | 14.44° C | 41% | 1001.2 hPa | 0 mm | - | 598 W/m² | - |
| 1777925583 | 13.89° C | 43% | 1001.4 hPa | 0 mm | - | 189 W/m² | - |
| 1777925280 | 15° C | 40% | 1001.1 hPa | 0 mm | - | 157 W/m² | - |
| 1777924976 | 15° C | 40% | 1001.3 hPa | 0 mm | - | 628 W/m² | - |
| 1777924672 | 15.56° C | 40% | 1000.9 hPa | 0 mm | - | 689 W/m² | - |
| 1777924368 | 15° C | 41% | 1000.8 hPa | 0 mm | - | 766 W/m² | - |
| 1777924065 | 15.56° C | 39% | 1001 hPa | 0 mm | - | 527 W/m² | - |
| 1777923762 | 15.56° C | 39% | 1000.8 hPa | 0 mm | - | 648 W/m² | - |
| 1777923458 | 14.44° C | 41% | 1000.9 hPa | 0 mm | - | 652 W/m² | - |
| 1777923155 | 15° C | 41% | 1000.9 hPa | 0 mm | - | 688 W/m² | - |
| 1777922854 | 14.44° C | 41% | 1000.8 hPa | 0 mm | - | 508 W/m² | - |
| 1777922551 | 15.56° C | 40% | 1000.9 hPa | 0 mm | - | 537 W/m² | - |
| 1777922250 | 15.56° C | 41% | 1000.8 hPa | 0 mm | - | 739 W/m² | - |
| 1777921946 | 15.56° C | 41% | 1000.5 hPa | 0 mm | - | 274 W/m² | - |
| 1777921642 | 14.44° C | 43% | 1000.3 hPa | 0 mm | - | 729 W/m² | - |
| 1777921339 | 15° C | 42% | 1000.5 hPa | 0 mm | - | 699 W/m² | - |
| 1777921035 | 14.44° C | 42% | 1000.3 hPa | 0 mm | - | 671 W/m² | - |
| 1777920732 | 14.44° C | 43% | 1000.3 hPa | 0 mm | - | 451 W/m² | - |
| 1777920428 | 15° C | 42% | 1000.3 hPa | 0 mm | - | 291 W/m² | - |
* Rain latest hour (hover to see other rain measurements)
** Current wind speed in m/s (hover to see current wind gust speed)